Airfield :







YOU CAN JOIN US ON...

 
LOGIN :

Register | Disclaimer

   EN    FR    IT 

 









Legend :    VFR   Marginal VFR   IFR   Intensive IFR   Very Intensive IFR
Visi :
Ceiling :
>= 8 km
>= 3000ft
5 to 8 km
1000 to 3000 ft
1500m to 5 km
500 to 1000 ft
800 to 1500m
200 to 500 ft
< 800m
< 200 ft
Symbols :   Thunderstorms  Fog  Heavy snow  Heavy precipitations  Wind > 20 kt







- Airport Elevation : 827 ft


KDDH - William H. Morse State

CURRENT METAR :
  • 160154Z AUTO 22006KT 10SM BKN041 OVC050 18/13 A3007 RMK AO2 RAB09E32 SLP181 P0000 T01780133

EXPIRED METARs :
  • 160054Z AUTO 23004KT 10SM BKN060 BKN070 OVC085 18/13 A3007 RMK AO2 SLP181 T01830128
  • 152354Z AUTO 21004KT 10SM BKN055 OVC095 18/13 A3008 RMK AO2 SLP183 60000 T01830128 10222 20178 56006
  • 152254Z AUTO 00000KT 10SM SCT065 BKN110 18/14 A3008 RMK AO2 RAE03 SLP183 P0000 T01830139

TAF N/A
No reported NOTAMs for that airfield.



MET'MAP, your aeronautical weather chart ! - Copyright ORBIFLY December 2007 - Disclaimer

ORBIFLY MET'MAP TEAM :

Programming & Development : Alexandra Zaïnal
Concept & Development : Baudouin d'Aumeries
Co-Development & Prog : Marc-Olivier Méhu
Technical & hardware support : Manuel Goepfert

Contact : metmap@orbifly.com




SOURCES & CREDITS :

   NOAA